Time;durP1;ratioP1;P1;durP2;ratioP2;P2;SDS_P1;SDS_P2;PMS_P1;PMS_P2;Temp;Humidity;BMP_temperature;BMP_pressure;BME280_temperature;BME280_humidity;BME280_pressure;Samples;Min_cycle;Max_cycle;Signal;HPM_P1;HPM_P2
2021/04/19 00:00:33;;;;;;;23.00;12.27;;;;;;;7.43;77.76;102247.69;5053441;28;20483;-76
2021/04/19 00:02:58;;;;;;;19.95;12.57;;;;;;;7.34;77.79;102235.84;5053863;28;20040;-83
2021/04/19 00:05:24;;;;;;;18.67;12.13;;;;;;;7.32;78.83;102239.56;5054714;28;20036;-75
2021/04/19 00:07:49;;;;;;;21.33;12.70;;;;;;;7.31;78.83;102238.69;5051928;28;20040;-75
2021/04/19 00:10:17;;;;;;;21.50;12.20;;;;;;;7.28;79.04;102243.34;5054208;28;20523;-74
2021/04/19 00:12:43;;;;;;;16.52;11.75;;;;;;;7.08;78.89;102208.28;5052463;28;20032;-75
2021/04/19 00:15:10;;;;;;;17.50;11.35;;;;;;;7.23;79.17;102229.50;5079608;28;20028;-82
2021/04/19 00:17:36;;;;;;;26.42;12.32;;;;;;;7.02;79.99;102198.91;5055917;28;20107;-75
2021/04/19 00:20:04;;;;;;;20.15;12.60;;;;;;;7.14;79.66;102238.91;5049175;28;20308;-82
2021/04/19 00:22:31;;;;;;;18.33;12.63;;;;;;;7.04;80.21;102220.91;5054533;28;20036;-75
2021/04/19 00:24:56;;;;;;;20.60;12.25;;;;;;;7.08;79.89;102221.56;5052884;28;20024;-83
2021/04/19 00:27:21;;;;;;;18.55;12.40;;;;;;;7.04;80.38;102226.22;5053402;28;20141;-75
2021/04/19 00:29:47;;;;;;;22.52;11.77;;;;;;;7.05;80.75;102219.13;5050704;28;20032;-83
2021/04/19 00:32:13;;;;;;;18.77;12.27;;;;;;;7.03;80.37;102211.22;5052338;28;20036;-76
2021/04/19 00:34:38;;;;;;;19.92;12.82;;;;;;;6.99;80.33;102217.66;5054393;28;20032;-83
2021/04/19 00:37:04;;;;;;;21.80;12.70;;;;;;;7.02;79.83;102214.81;5053745;28;20044;-75
2021/04/19 00:39:30;;;;;;;19.02;12.38;;;;;;;6.95;80.37;102216.16;5054162;28;20411;-75
2021/04/19 00:41:56;;;;;;;24.63;13.70;;;;;;;6.92;80.70;102205.75;5078706;28;20055;-75
2021/04/19 00:44:21;;;;;;;20.05;13.45;;;;;;;6.78;81.10;102177.44;5047362;28;20036;-82
2021/04/19 00:46:48;;;;;;;20.25;13.50;;;;;;;6.69;80.65;102162.06;5054649;28;20024;-81
2021/04/19 00:49:15;;;;;;;20.25;12.88;;;;;;;6.85;80.43;102194.66;5051571;28;20027;-74
2021/04/19 00:51:40;;;;;;;22.63;13.43;;;;;;;6.77;81.75;102196.94;5052448;28;20033;-76
2021/04/19 00:54:07;;;;;;;22.17;13.25;;;;;;;6.70;81.85;102195.59;5048541;28;20513;-76
2021/04/19 00:56:32;;;;;;;23.02;13.75;;;;;;;6.43;82.34;102151.25;5052654;28;20060;-83
2021/04/19 00:58:58;;;;;;;21.25;14.10;;;;;;;6.69;82.19;102199.19;5052810;28;20115;-76
2021/04/19 01:01:26;;;;;;;23.25;14.20;;;;;;;6.67;82.66;102191.34;5053862;28;20046;-83
2021/04/19 01:03:52;;;;;;;22.73;13.73;;;;;;;6.53;81.73;102168.31;5050338;28;20041;-76
2021/04/19 01:06:17;;;;;;;23.05;14.48;;;;;;;6.60;82.40;102192.66;5055846;28;20082;-76
2021/04/19 01:08:43;;;;;;;21.45;14.35;;;;;;;6.55;82.71;102192.94;5050427;28;20048;-76
2021/04/19 01:11:08;;;;;;;22.92;14.68;;;;;;;6.51;82.43;102183.50;5054212;28;20423;-84
2021/04/19 01:13:34;;;;;;;25.77;15.32;;;;;;;6.48;83.59;102185.44;5076325;28;20333;-74
2021/04/19 01:15:59;;;;;;;24.65;15.43;;;;;;;6.40;83.72;102186.78;5052424;28;20748;-75
2021/04/19 01:18:25;;;;;;;26.25;15.48;;;;;;;6.36;83.04;102185.25;5050088;28;20156;-74
2021/04/19 01:20:51;;;;;;;24.70;15.68;;;;;;;6.33;83.99;102184.59;5051318;28;20044;-74
2021/04/19 01:23:18;;;;;;;27.10;16.08;;;;;;;6.28;83.65;102185.72;5052085;28;20040;-74
2021/04/19 01:25:45;;;;;;;25.13;15.68;;;;;;;6.25;84.79;102179.75;5054861;28;20032;-74
2021/04/19 01:28:10;;;;;;;24.20;15.82;;;;;;;6.16;84.69;102181.16;5050044;28;20486;-74
2021/04/19 01:30:39;;;;;;;26.10;16.45;;;;;;;6.08;84.29;102167.50;5049475;28;20116;-82
2021/04/19 01:33:05;;;;;;;26.23;16.05;;;;;;;6.01;84.80;102150.25;5050645;28;20111;-83
2021/04/19 01:35:31;;;;;;;25.67;16.30;;;;;;;6.17;84.87;102176.72;5054873;28;20036;-74
2021/04/19 01:37:57;;;;;;;27.48;16.70;;;;;;;6.23;84.39;102178.97;5053696;28;20040;-74
2021/04/19 01:40:23;;;;;;;30.95;17.02;;;;;;;6.17;83.84;102179.38;5052901;28;20036;-74
2021/04/19 01:42:49;;;;;;;30.13;17.50;;;;;;;5.92;84.95;102147.19;5053212;28;20068;-74
2021/04/19 01:45:16;;;;;;;28.65;17.10;;;;;;;6.10;85.72;102166.47;5055544;28;20059;-75
2021/04/19 01:47:42;;;;;;;32.33;17.77;;;;;;;6.10;85.63;102174.41;5051015;28;20036;-74
2021/04/19 01:50:14;;;;;;;30.38;18.17;;;;;;;6.09;85.53;102169.22;5051824;28;20832;-74
2021/04/19 01:52:40;;;;;;;29.15;18.77;;;;;;;6.08;84.71;102173.66;5055247;28;20434;-81
2021/04/19 01:55:12;;;;;;;29.75;18.83;;;;;;;5.86;85.32;102128.97;5059608;28;20028;-77
2021/04/19 01:57:40;;;;;;;32.80;19.17;;;;;;;6.08;85.33;102167.50;5055523;28;20028;-74
2021/04/19 02:00:07;;;;;;;38.10;20.02;;;;;;;6.06;86.08;102164.94;5057206;28;20020;-81
2021/04/19 02:03:06;;;;;;;30.60;19.55;;;;;;;6.05;85.88;102167.69;5055775;28;20039;-75
2021/04/19 02:05:49;;;;;;;32.47;19.73;;;;;;;6.06;86.14;102164.94;5051605;28;20051;-82
2021/04/19 02:08:36;;;;;;;30.90;19.00;;;;;;;6.06;85.25;102172.03;5060037;28;20111;-75
2021/04/19 02:11:25;;;;;;;30.70;20.23;;;;;;;6.08;85.48;102165.69;5056386;28;20033;-74
2021/04/19 02:14:00;;;;;;;36.13;21.30;;;;;;;6.09;84.94;102166.56;5053592;28;20059;-82
2021/04/19 02:16:42;;;;;;;36.75;20.65;;;;;;;6.04;85.08;102166.81;5058036;28;20081;-75
2021/04/19 02:19:10;;;;;;;35.25;21.05;;;;;;;6.03;85.42;102162.47;5055687;28;20040;-74
2021/04/19 02:21:37;;;;;;;;;;;;;;;6.02;85.65;102168.72;5055437;28;20042;-82
2021/04/19 02:24:10;;;;;;;32.88;21.10;;;;;;;5.90;86.33;102145.56;5054051;28;19955;-75
2021/04/19 02:26:41;;;;;;;35.47;23.15;;;;;;;5.99;86.16;102166.22;5056036;28;20028;-74
2021/04/19 02:29:13;;;;;;;36.53;22.92;;;;;;;5.97;85.97;102160.16;5060225;28;20111;-74
2021/04/19 02:31:48;;;;;;;38.17;24.05;;;;;;;5.98;85.48;102167.16;5055973;28;20024;-74
2021/04/19 02:34:16;;;;;;;41.47;24.65;;;;;;;5.93;86.86;102167.44;5056844;28;20025;-74
2021/04/19 02:36:49;;;;;;;36.75;24.15;;;;;;;5.93;86.47;102162.13;5059596;28;20021;-82
2021/04/19 02:39:16;;;;;;;38.10;24.10;;;;;;;5.92;86.55;102160.44;5058094;28;20032;-82
2021/04/19 02:41:44;;;;;;;46.45;25.95;;;;;;;5.87;87.21;102153.69;5059164;28;20322;-83
2021/04/19 02:44:10;;;;;;;43.67;25.85;;;;;;;5.89;87.12;102159.75;5050436;28;20311;-75
2021/04/19 02:46:37;;;;;;;42.08;26.23;;;;;;;5.86;86.77;102152.81;5054629;28;20052;-75
2021/04/19 02:49:04;;;;;;;46.72;28.45;;;;;;;5.86;87.02;102154.63;5055448;28;20121;-74
2021/04/19 02:51:31;;;;;;;45.88;27.63;;;;;;;5.83;87.91;102156.53;5059047;28;20068;-74
2021/04/19 02:53:57;;;;;;;45.95;29.13;;;;;;;5.75;87.73;102139.34;5055568;28;20169;-75
2021/04/19 02:56:23;;;;;;;48.92;30.30;;;;;;;5.87;87.35;102153.69;5055431;28;20064;-83
2021/04/19 02:58:53;;;;;;;52.95;31.08;;;;;;;5.86;87.22;102149.34;5036011;28;20619;-81
2021/04/19 03:01:24;;;;;;;51.30;31.58;;;;;;;5.85;87.22;102142.34;5056279;28;20032;-76
2021/04/19 03:03:52;;;;;;;59.13;34.50;;;;;;;5.78;88.21;102145.31;5051391;28;20071;-74
2021/04/19 03:06:20;;;;;;;56.92;35.08;;;;;;;5.77;88.71;102138.31;5054658;28;20038;-75
2021/04/19 03:08:53;;;;;;;62.60;37.53;;;;;;;5.78;89.45;102141.84;5038960;28;20109;-81
2021/04/19 03:11:23;;;;;;;59.33;36.42;;;;;;;5.76;89.03;102135.78;5056297;28;20175;-74
2021/04/19 03:13:51;;;;;;;62.35;37.67;;;;;;;5.77;89.30;102142.78;5053455;28;20065;-74
2021/04/19 03:16:23;;;;;;;63.47;37.92;;;;;;;5.74;89.11;102154.41;5055562;28;20462;-82
2021/04/19 03:18:50;;;;;;;60.58;37.78;;;;;;;5.64;89.61;102156.75;5058393;28;20039;-82
2021/04/19 03:21:24;;;;;;;58.33;36.40;;;;;;;5.63;89.40;102151.53;5055564;28;20123;-82
2021/04/19 03:23:55;;;;;;;54.97;35.08;;;;;;;5.58;89.82;102154.44;5053326;28;20036;-81
2021/04/19 03:26:26;;;;;;;54.95;34.65;;;;;;;5.56;90.19;102144.88;5055951;28;20364;-75
2021/04/19 03:28:53;;;;;;;55.95;35.83;;;;;;;5.13;89.46;102093.44;5055188;28;20158;-74
2021/04/19 03:31:25;;;;;;;60.97;37.65;;;;;;;5.37;89.65;102145.91;5059654;28;20033;-81
2021/04/19 03:33:55;;;;;;;61.60;37.80;;;;;;;5.38;90.21;102154.72;5049597;28;20031;-74
2021/04/19 03:36:23;;;;;;;62.90;36.97;;;;;;;5.29;90.68;102156.97;5055364;28;20059;-74
2021/04/19 03:38:49;;;;;;;64.03;38.03;;;;;;;5.18;90.30;102154.91;5050961;28;20028;-74
2021/04/19 03:41:16;;;;;;;58.35;36.88;;;;;;;5.17;91.18;102145.25;5041730;28;20064;-81
2021/04/19 03:43:53;;;;;;;58.40;37.28;;;;;;;5.15;90.63;102146.31;5056198;28;20089;-75
2021/04/19 03:46:20;;;;;;;60.58;37.60;;;;;;;4.57;90.63;102048.06;5052517;28;20128;-74
2021/04/19 03:48:52;;;;;;;69.43;40.22;;;;;;;5.01;92.37;102142.63;5056463;28;20382;-74
2021/04/19 03:51:21;;;;;;;73.22;39.08;;;;;;;5.03;92.52;102138.06;5055573;28;20028;-75
2021/04/19 03:53:49;;;;;;;;;;;;;;;5.04;92.70;102137.13;5052657;28;20029;-74
2021/04/19 03:56:17;;;;;;;68.18;38.28;;;;;;;4.92;92.75;102111.38;5054166;28;19928;-74
2021/04/19 03:58:45;;;;;;;74.18;42.03;;;;;;;5.06;92.83;102126.50;5054216;28;20051;-81
2021/04/19 04:01:12;;;;;;;68.25;41.58;;;;;;;5.04;92.50;102131.00;5056736;28;20020;-75
2021/04/19 04:03:37;;;;;;;70.50;41.47;;;;;;;5.03;93.16;102137.25;5051783;28;20032;-81
2021/04/19 04:06:04;;;;;;;64.65;40.15;;;;;;;5.01;92.75;102121.47;5053741;28;20113;-74
2021/04/19 04:08:30;;;;;;;62.63;39.33;;;;;;;5.03;93.25;102127.50;5054835;28;20036;-75
2021/04/19 04:10:57;;;;;;;67.05;41.78;;;;;;;4.71;93.04;102074.59;5054627;28;20107;-75
2021/04/19 04:13:23;;;;;;;66.85;41.58;;;;;;;5.03;93.42;102127.50;5051617;28;20040;-74
2021/04/19 04:15:51;;;;;;;71.38;42.28;;;;;;;5.06;93.46;102123.84;5052136;28;20032;-75
2021/04/19 04:18:17;;;;;;;65.17;39.90;;;;;;;4.72;93.49;102062.22;5053650;28;20039;-75
2021/04/19 04:20:42;;;;;;;75.63;43.50;;;;;;;5.12;94.07;102118.19;5077724;28;20998;-74
2021/04/19 04:23:08;;;;;;;84.60;44.03;;;;;;;5.15;94.18;102120.66;5055428;28;20047;-81
2021/04/19 04:25:34;;;;;;;73.75;43.58;;;;;;;5.17;93.51;102120.56;5079027;28;20079;-74
2021/04/19 04:28:01;;;;;;;64.97;42.08;;;;;;;5.20;93.95;102115.13;5054154;28;20117;-81
2021/04/19 04:30:27;;;;;;;80.25;42.83;;;;;;;5.23;93.51;102117.59;5058462;28;20035;-75
2021/04/19 04:32:52;;;;;;;72.55;41.88;;;;;;;5.25;93.52;102106.91;5049462;28;20127;-74
2021/04/19 04:35:18;;;;;;;64.45;40.15;;;;;;;5.27;93.08;102111.19;5051753;28;20090;-74
2021/04/19 04:37:43;;;;;;;66.38;39.22;;;;;;;5.27;92.69;102119.13;5052678;28;20040;-74
2021/04/19 04:40:09;;;;;;;63.75;37.72;;;;;;;5.22;92.57;102116.72;5054070;28;20032;-75
2021/04/19 04:42:35;;;;;;;63.47;38.35;;;;;;;5.18;93.02;102117.88;5049500;28;20058;-74
2021/04/19 04:45:01;;;;;;;63.70;39.13;;;;;;;5.15;93.66;102118.03;5049630;28;20123;-75
2021/04/19 04:47:32;;;;;;;65.50;39.65;;;;;;;5.13;93.38;102117.25;5051722;28;20037;-75
2021/04/19 04:50:07;;;;;;;66.40;38.72;;;;;;;5.13;93.18;102121.72;5055287;28;21146;-75
2021/04/19 04:52:57;;;;;;;70.32;41.00;;;;;;;5.10;93.53;102119.22;5054150;28;20023;-75
2021/04/19 04:55:24;;;;;;;70.32;43.15;;;;;;;4.86;93.52;102088.75;5053279;28;20347;-75
2021/04/19 04:57:51;;;;;;;71.43;43.65;;;;;;;5.06;93.38;102124.69;5051187;28;20040;-74
2021/04/19 05:00:19;;;;;;;71.60;42.55;;;;;;;5.06;93.77;102129.97;5053316;28;20032;-74
2021/04/19 05:02:46;;;;;;;73.45;43.33;;;;;;;5.06;95.08;102143.19;5051209;28;20036;-75
2021/04/19 05:05:13;;;;;;;77.22;44.15;;;;;;;5.03;94.59;102145.19;5054082;28;20024;-75
2021/04/19 05:07:40;;;;;;;71.57;42.92;;;;;;;5.04;93.94;102137.13;5050567;28;20514;-75
2021/04/19 05:10:07;;;;;;;73.10;42.72;;;;;;;4.97;94.39;102126.97;5053992;28;20110;-75
2021/04/19 05:12:32;;;;;;;63.72;39.92;;;;;;;4.98;94.75;102123.41;5051732;28;20067;-74
2021/04/19 05:15:07;;;;;;;64.18;39.58;;;;;;;4.99;93.71;102125.97;5054915;28;20419;-75
2021/04/19 05:17:33;;;;;;;65.55;37.75;;;;;;;4.90;93.74;102116.75;5054895;28;20094;-74
2021/04/19 05:19:58;;;;;;;65.70;39.65;;;;;;;4.78;94.17;102095.41;5037355;28;20094;-74
2021/04/19 05:22:24;;;;;;;66.03;37.85;;;;;;;4.95;94.33;102116.50;5052750;28;20469;-74
2021/04/19 05:24:51;;;;;;;61.10;36.45;;;;;;;5.01;94.25;102116.16;5050317;28;21242;-74
2021/04/19 05:27:16;;;;;;;58.50;36.83;;;;;;;4.39;94.33;101997.91;5053090;28;20039;-74
2021/04/19 05:29:43;;;;;;;59.75;36.90;;;;;;;4.89;94.08;102074.50;5055392;28;20040;-75
2021/04/19 05:32:10;;;;;;;59.47;38.30;;;;;;;5.15;93.28;102111.91;5057904;28;20491;-75
2021/04/19 05:34:39;;;;;;;54.72;34.35;;;;;;;5.19;93.88;102122.22;5056660;28;20040;-82
2021/04/19 05:37:06;;;;;;;53.25;33.47;;;;;;;5.10;93.49;102090.13;5059325;28;20028;-82
2021/04/19 05:39:33;;;;;;;62.45;35.85;;;;;;;5.19;92.68;102116.91;5060441;28;20395;-74
2021/04/19 05:42:02;;;;;;;58.38;36.65;;;;;;;5.26;93.74;102112.13;5057748;28;20560;-83
2021/04/19 05:44:32;;;;;;;65.45;39.13;;;;;;;5.35;94.57;102122.19;5053222;28;20041;-74
2021/04/19 05:46:57;;;;;;;64.40;37.45;;;;;;;5.45;93.14;102127.81;5058865;28;20171;-82
2021/04/19 05:49:23;;;;;;;66.43;38.08;;;;;;;5.26;93.25;102082.16;5060527;28;20024;-82
2021/04/19 05:51:50;;;;;;;61.45;37.55;;;;;;;5.50;93.67;102120.44;5055413;28;20493;-75
2021/04/19 05:54:17;;;;;;;58.67;36.97;;;;;;;5.54;93.07;102122.91;5056820;28;20605;-82
2021/04/19 05:57:09;;;;;;;62.38;37.45;;;;;;;5.48;92.79;102111.75;5055631;28;20028;-82
2021/04/19 06:00:18;;;;;;;56.42;35.67;;;;;;;5.59;92.54;102118.22;5058593;28;20142;-76
2021/04/19 06:02:53;;;;;;;58.13;35.20;;;;;;;5.56;92.70;102100.72;5052453;28;21858;-76
2021/04/19 06:05:28;;;;;;;57.45;34.90;;;;;;;5.36;92.13;102065.66;5053695;28;20032;-75
2021/04/19 06:08:13;;;;;;;61.67;36.78;;;;;;;5.75;92.25;102115.53;5053292;28;20042;-81
2021/04/19 06:10:45;;;;;;;60.05;35.55;;;;;;;5.84;92.97;102122.91;5057080;28;20068;-75
2021/04/19 06:13:14;;;;;;;63.17;37.55;;;;;;;5.89;92.96;102112.91;5056418;28;20024;-74
2021/04/19 06:15:41;;;;;;;63.88;35.63;;;;;;;6.07;92.33;102118.09;5057176;28;20107;-76
2021/04/19 06:18:08;;;;;;;61.30;36.22;;;;;;;6.18;91.51;102118.28;5078851;28;20111;-76
2021/04/19 06:20:35;;;;;;;53.38;34.75;;;;;;;6.26;91.29;102120.47;5060371;28;20060;-75
2021/04/19 06:23:00;;;;;;;66.78;35.70;;;;;;;6.19;91.71;102095.28;5043206;28;20550;-75
2021/04/19 06:25:28;;;;;;;61.00;35.60;;;;;;;6.42;91.47;102120.38;5058420;28;20031;-75
2021/04/19 06:28:02;;;;;;;61.65;35.63;;;;;;;6.23;90.77;102062.34;5057031;28;20037;-74
2021/04/19 06:30:31;;;;;;;56.20;34.13;;;;;;;6.66;90.50;102106.53;5068490;28;20024;-75
2021/04/19 06:32:58;;;;;;;61.40;34.38;;;;;;;6.66;90.48;102094.13;5069719;28;20119;-76
2021/04/19 06:35:24;;;;;;;58.22;34.58;;;;;;;6.81;90.19;102113.53;5066118;28;20029;-84
2021/04/19 06:37:51;;;;;;;57.53;32.90;;;;;;;6.88;89.93;102109.56;5068293;28;20032;-83
2021/04/19 06:40:18;;;;;;;53.15;33.28;;;;;;;6.93;90.13;102111.03;5073496;28;20085;-76
2021/04/19 06:42:43;;;;;;;57.75;33.30;;;;;;;7.01;89.76;102114.06;5057697;28;20053;-76
2021/04/19 06:45:12;;;;;;;56.95;32.28;;;;;;;7.03;89.84;102118.31;5066150;28;20449;-83
2021/04/19 06:47:40;;;;;;;56.05;32.88;;;;;;;7.12;90.05;102113.41;5075514;28;20046;-76
2021/04/19 06:50:06;;;;;;;52.40;33.57;;;;;;;7.21;89.92;102118.09;5060768;28;20457;-76
2021/04/19 06:52:32;;;;;;;53.92;33.58;;;;;;;7.08;90.04;102067.59;5064423;28;20458;-76
2021/04/19 06:54:58;;;;;;;54.75;32.47;;;;;;;7.45;89.46;102113.00;5062558;28;20040;-82
2021/04/19 06:57:26;;;;;;;53.65;32.17;;;;;;;7.48;89.46;102115.41;5063782;28;20025;-75
2021/04/19 06:59:52;;;;;;;;;;;;;;;7.50;89.28;102115.34;5064749;28;20045;-76
2021/04/19 07:02:25;;;;;;;53.25;32.40;;;;;;;7.53;89.93;102109.81;5059740;28;19925;-83
2021/04/19 07:04:52;;;;;;;54.70;33.25;;;;;;;7.54;90.24;102118.63;5060242;28;20036;-75
2021/04/19 07:07:31;;;;;;;57.38;33.08;;;;;;;7.48;91.00;102111.91;5065638;28;20033;-74
2021/04/19 07:09:59;;;;;;;52.85;33.97;;;;;;;7.53;91.65;102108.97;5060262;28;20020;-71
2021/04/19 07:12:27;;;;;;;64.60;33.88;;;;;;;7.56;91.55;102106.09;5059692;28;20043;-71
2021/04/19 07:14:54;;;;;;;57.28;32.40;;;;;;;7.61;91.85;102112.81;5063424;28;20622;-82
2021/04/19 07:17:21;;;;;;;53.92;32.45;;;;;;;7.68;92.20;102117.69;5065833;28;20028;-72
2021/04/19 07:19:47;;;;;;;56.13;32.42;;;;;;;7.72;92.27;102116.53;5063656;28;20211;-71
2021/04/19 07:22:17;;;;;;;52.83;33.20;;;;;;;7.38;92.12;102041.78;5071570;28;20119;-72
2021/04/19 07:24:43;;;;;;;51.67;32.03;;;;;;;7.89;91.66;102110.09;5050331;28;20064;-72
2021/04/19 07:27:13;;;;;;;47.72;31.55;;;;;;;7.94;91.33;102108.81;5086876;27;20028;-85
2021/04/19 07:29:42;;;;;;;49.65;31.95;;;;;;;7.98;90.97;102109.47;5060809;28;20025;-71
2021/04/19 07:32:08;;;;;;;47.17;30.88;;;;;;;8.06;90.96;102106.28;5051304;28;20027;-72
2021/04/19 07:34:34;;;;;;;51.58;32.33;;;;;;;8.11;91.21;102113.00;5052822;28;20025;-71
2021/04/19 07:37:05;;;;;;;56.03;32.08;;;;;;;8.20;91.64;102113.31;5064386;28;20422;-71
2021/04/19 07:39:41;;;;;;;56.10;33.70;;;;;;;8.33;91.31;102114.16;5060737;28;20043;-71
2021/04/19 07:42:11;;;;;;;48.65;32.85;;;;;;;8.47;91.42;102110.53;5035714;28;20091;-72
2021/04/19 07:44:51;;;;;;;51.10;31.98;;;;;;;8.58;91.26;102108.00;5047626;28;20175;-71
2021/04/19 07:47:32;;;;;;;49.95;31.58;;;;;;;8.66;90.70;102106.59;5054556;28;20056;-72
2021/04/19 07:50:18;;;;;;;46.65;30.05;;;;;;;8.75;90.76;102103.28;5051875;28;20036;-72
2021/04/19 07:53:00;;;;;;;49.47;31.15;;;;;;;8.88;90.82;102100.56;5050963;28;20036;-72
2021/04/19 07:55:33;;;;;;;44.22;26.83;;;;;;;9.07;90.22;102110.72;5047226;28;20025;-72
2021/04/19 07:57:59;;;;;;;42.65;26.20;;;;;;;9.04;89.26;102071.88;5039611;28;20043;-72
2021/04/19 08:00:45;;;;;;;44.42;25.90;;;;;;;9.47;88.55;102105.13;5059958;28;20120;-72
2021/04/19 08:03:14;;;;;;;39.58;25.63;;;;;;;9.70;87.46;102105.22;5059233;28;20047;-90
2021/04/19 08:06:18;;;;;;;41.03;25.38;;;;;;;9.83;87.65;102112.28;5050767;28;20039;-72
2021/04/19 08:08:44;;;;;;;40.42;25.75;;;;;;;9.80;87.88;102095.53;5055596;28;20398;-72
2021/04/19 08:11:11;;;;;;;39.50;26.48;;;;;;;10.05;87.00;102101.66;5049390;28;20033;-72
2021/04/19 08:13:37;;;;;;;36.15;24.80;;;;;;;10.71;84.96;102106.31;5070873;27;20051;-72
2021/04/19 08:16:18;;;;;;;31.90;23.85;;;;;;;11.51;81.11;102100.72;5058354;28;20063;-72
2021/04/19 08:18:44;;;;;;;31.60;23.52;;;;;;;12.38;77.35;102099.59;5058618;28;20032;-87
2021/04/19 08:21:11;;;;;;;29.50;21.90;;;;;;;13.26;73.32;102106.16;5055944;28;20428;-87
2021/04/19 08:23:42;;;;;;;32.95;21.85;;;;;;;13.44;71.72;102099.16;5047256;28;20040;-72
2021/04/19 08:26:07;;;;;;;30.38;20.42;;;;;;;12.91;71.06;102068.19;5058095;28;20615;-71
2021/04/19 08:28:44;;;;;;;27.25;21.15;;;;;;;12.65;72.87;102110.72;5064475;28;20028;-72
2021/04/19 08:31:10;;;;;;;36.00;21.92;;;;;;;12.05;74.64;102053.41;5063564;28;20032;-87
2021/04/19 08:33:36;;;;;;;28.45;21.88;;;;;;;12.33;75.81;102104.53;5051241;28;20020;-81
2021/04/19 08:36:03;;;;;;;31.77;22.50;;;;;;;12.35;74.54;102059.72;5054780;28;20030;-78
2021/04/19 08:38:31;;;;;;;30.40;22.85;;;;;;;13.07;72.32;102110.53;5060019;28;20406;-82
2021/04/19 08:40:57;;;;;;;31.98;21.88;;;;;;;13.54;71.42;102100.97;5056477;28;20028;-78
2021/04/19 08:43:26;;;;;;;31.38;22.40;;;;;;;14.15;67.34;102066.69;5054062;28;20098;-76
2021/04/19 08:45:51;;;;;;;;;;;;;;;14.64;65.78;102106.78;5067814;28;20033;-78
2021/04/19 08:48:17;;;;;;;27.98;22.27;;;;;;;15.31;64.45;102099.28;5057299;28;19927;-83
2021/04/19 08:50:48;;;;;;;25.95;20.90;;;;;;;16.12;60.32;102093.84;5058471;28;20659;-72
2021/04/19 08:53:16;;;;;;;26.25;20.77;;;;;;;16.97;57.99;102098.44;5050576;28;20639;-88
2021/04/19 08:55:46;;;;;;;24.52;19.88;;;;;;;17.60;54.53;102054.81;5064640;28;20098;-78
2021/04/19 08:58:14;;;;;;;24.90;20.13;;;;;;;18.23;52.49;102106.38;5060905;28;20024;-87
2021/04/19 09:00:47;;;;;;;;;;;;;;;17.75;54.09;102101.69;5067622;28;20076;-72
2021/04/19 09:03:17;;;;;;;24.33;19.85;;;;;;;18.09;52.68;102096.28;5060550;28;19966;-89
2021/04/19 09:05:42;;;;;;;25.80;21.30;;;;;;;17.79;53.01;102104.06;5060129;28;20032;-77
2021/04/19 09:08:12;;;;;;;27.08;20.08;;;;;;;17.06;54.90;102102.00;5059108;28;20506;-85
2021/04/19 09:10:55;;;;;;;27.17;21.08;;;;;;;17.02;54.77;102105.19;5063504;28;20467;-87
2021/04/19 09:13:31;;;;;;;27.85;21.27;;;;;;;16.54;56.03;102108.41;5063706;28;20036;-78
2021/04/19 09:16:32;;;;;;;28.98;21.60;;;;;;;15.50;59.91;102112.72;5062532;28;20537;-76
2021/04/19 09:18:59;;;;;;;27.58;22.38;;;;;;;15.25;60.87;102110.66;5057635;28;20045;-75
2021/04/19 09:21:44;;;;;;;27.95;21.10;;;;;;;15.43;60.81;102107.09;5056780;28;20025;-76
2021/04/19 09:24:17;;;;;;;28.15;20.77;;;;;;;16.30;56.88;102103.72;5054456;28;20033;-86
2021/04/19 09:26:45;;;;;;;25.63;20.08;;;;;;;17.16;54.66;102104.56;5057168;28;20029;-81
2021/04/19 09:29:31;;;;;;;24.98;19.35;;;;;;;18.10;51.56;102100.69;5057773;28;20035;-81
2021/04/19 09:31:58;;;;;;;22.42;19.33;;;;;;;18.75;49.62;102102.25;5055657;28;20079;-81
2021/04/19 09:34:52;;;;;;;21.42;18.08;;;;;;;19.47;48.44;102099.47;5054894;28;20056;-80
2021/04/19 09:37:23;;;;;;;21.55;19.30;;;;;;;19.25;48.29;102067.66;5054955;28;20056;-77
2021/04/19 09:39:53;;;;;;;21.38;18.77;;;;;;;20.13;46.34;102093.44;5054808;28;20032;-76
2021/04/19 09:42:53;;;;;;;23.00;19.30;;;;;;;20.71;44.79;102103.59;5050477;28;20139;-76
2021/04/19 09:45:42;;;;;;;23.25;18.98;;;;;;;20.70;44.40;102101.91;5055342;28;20090;-76
2021/04/19 09:48:27;;;;;;;22.52;18.42;;;;;;;20.40;44.08;102107.34;5054967;28;20033;-73
2021/04/19 09:50:58;;;;;;;20.20;18.10;;;;;;;20.26;45.54;102099.03;5052086;28;20036;-75
2021/04/19 09:53:25;;;;;;;21.23;17.10;;;;;;;20.56;44.97;102098.19;5053523;28;20020;-82
2021/04/19 09:55:51;;;;;;;20.17;17.30;;;;;;;20.28;44.91;102096.16;5052359;28;20102;-84
2021/04/19 09:58:20;;;;;;;20.33;18.00;;;;;;;20.65;45.34;102105.19;5054445;28;20032;-76
2021/04/19 10:00:53;;;;;;;19.27;16.30;;;;;;;20.27;44.98;102094.50;5056637;28;20062;-81
2021/04/19 10:03:19;;;;;;;21.42;17.13;;;;;;;20.68;44.28;102101.25;5051470;28;20033;-85
2021/04/19 10:05:45;;;;;;;19.63;17.52;;;;;;;19.87;45.90;102087.47;5048919;28;20035;-84
2021/04/19 10:08:12;;;;;;;19.67;16.88;;;;;;;19.25;47.85;102097.44;5052232;28;20031;-71
2021/04/19 10:10:41;;;;;;;19.05;15.60;;;;;;;20.04;44.96;102089.97;5047078;28;20029;-71
2021/04/19 10:13:06;;;;;;;17.52;15.63;;;;;;;20.41;45.14;102092.78;5044918;28;20033;-71
2021/04/19 10:15:32;;;;;;;21.02;15.75;;;;;;;20.47;44.15;102100.16;5055001;28;20035;-84
2021/04/19 10:17:59;;;;;;;16.98;14.95;;;;;;;20.15;44.26;102089.53;5063483;28;20039;-87
2021/04/19 10:20:27;;;;;;;16.80;14.82;;;;;;;20.22;44.42;102091.47;5064289;28;20039;-86
2021/04/19 10:23:10;;;;;;;17.05;15.32;;;;;;;19.97;44.49;102086.34;5057042;28;20037;-71
2021/04/19 10:25:52;;;;;;;17.75;15.63;;;;;;;19.39;45.85;102093.09;5052584;28;20443;-86
2021/04/19 10:28:40;;;;;;;20.15;14.13;;;;;;;18.58;47.00;102097.97;5056426;28;20043;-71
2021/04/19 10:31:16;;;;;;;;;;;;;;;17.94;48.70;102098.81;5057023;28;20017;-72
2021/04/19 10:33:44;;;;;;;18.50;14.70;;;;;;;16.88;51.18;102072.44;5060079;28;20390;-71
2021/04/19 10:36:41;;;;;;;17.23;14.18;;;;;;;16.45;52.02;102088.66;5056707;28;20054;-71
2021/04/19 10:39:13;;;;;;;17.33;14.02;;;;;;;16.00;53.61;102098.69;5056329;28;20044;-72
2021/04/19 10:41:39;;;;;;;17.02;14.80;;;;;;;15.58;55.37;102097.50;5085870;28;20062;-71
2021/04/19 10:44:08;;;;;;;17.48;14.40;;;;;;;15.45;55.81;102097.03;5056124;28;20068;-71
2021/04/19 10:46:39;;;;;;;18.98;15.18;;;;;;;15.28;56.94;102090.69;5056299;28;20087;-72
2021/04/19 10:49:06;;;;;;;15.95;14.07;;;;;;;15.29;57.45;102090.50;5062788;28;20032;-71
2021/04/19 10:51:38;;;;;;;20.77;14.30;;;;;;;15.25;57.21;102091.84;5058204;28;20040;-73
2021/04/19 10:54:06;;;;;;;15.73;12.90;;;;;;;15.19;57.19;102087.06;5058222;28;20036;-87
2021/04/19 10:56:31;;;;;;;;;;;;;;;15.29;56.26;102092.38;5058024;28;20031;-88
2021/04/19 10:59:06;;;;;;;15.43;12.70;;;;;;;15.17;57.02;102080.16;5059316;28;20015;-87
2021/04/19 11:01:33;;;;;;;15.07;12.32;;;;;;;15.24;56.83;102057.03;5055866;28;20467;-79
2021/04/19 11:04:01;;;;;;;15.27;12.25;;;;;;;15.69;56.05;102095.56;5057124;28;20044;-83
2021/04/19 11:06:27;;;;;;;20.60;12.50;;;;;;;15.76;56.39;102075.09;5055867;28;20124;-75
2021/04/19 11:08:52;;;;;;;12.60;10.82;;;;;;;16.08;55.64;102081.75;5058593;28;20025;-79
2021/04/19 11:11:25;;;;;;;11.68;10.48;;;;;;;16.35;54.31;102085.25;5060104;28;20555;-71
2021/04/19 11:13:52;;;;;;;10.88;9.77;;;;;;;16.66;53.61;102081.97;5055833;28;20029;-68
2021/04/19 11:16:22;;;;;;;11.73;10.07;;;;;;;16.43;53.13;102079.03;5051921;28;20055;-68
2021/04/19 11:18:48;;;;;;;12.50;11.13;;;;;;;16.28;53.87;102079.66;5050935;28;20467;-68
2021/04/19 11:21:34;;;;;;;11.75;10.27;;;;;;;16.15;54.59;102085.47;5051615;28;20507;-68
2021/04/19 11:24:13;;;;;;;11.20;9.60;;;;;;;16.22;54.33;102080.28;5064147;28;20487;-68
2021/04/19 11:26:40;;;;;;;11.35;8.88;;;;;;;16.33;53.82;102079.16;5057813;28;20029;-72
2021/04/19 11:29:06;;;;;;;9.55;8.65;;;;;;;16.31;52.71;102083.88;5057146;28;20431;-74